Schedule Details


Flight Number: CTN490
Departure: Krk Island (LDRI) at 09:30
Arrival: Heathrow (EGLL) at 11:00
Route: NAKIT UN606 BABAG N606 BADOP P66 SOTOV UP66 KPT UL608 TEDGO UZ210 LAMGO UM150 KRH UZ210 LIRSU UL608 BUB UY28 HELEN UL179 COA L179 SASKI L608 LOGAN

Weather Information
LDRI 211400Z VRB03KT 9999 FEW070 33/14 Q1014
EGLL 211350Z AUTO 23007KT 170V270 9999 SCT041 27/13 Q1018 NOSIG
Schedule Frequency

Route Map